Startpagina
METAR-TAF:

METAR-TAF

Vliegvelden :

São Gabriel da Cachoeira, Amazonas, Brazilië

breedte: 00-08S, lengte: 067-05W, hoogte: 90 m

Actueel weer

Dit bericht is 7 uur en het 56 minuten geleden gemaakt, om 19:00 UTC
Wind 3 kt uit het westen
Temperatuur 28°C
Vochtigheid 79%
Druk 1012 hPa
Zicht 10 km of meer
Verspreide wolken op 1500 ft

METAR: SBUA 161900Z 26003KT 9999 SCT015 28/24 Q1012

Tijdstip: 22:56 (02:56 UTC)


TAF: ontbreekt

Waarnemingen en weersverwachtingen van meer dan 4000 vliegvelden (METAR en TAF).

De beschikbare stations zijn de gele en rode punten op de kaart.

Ga met uw muis naar het station om de naam te zien.

Klik dan om waarnemingen en weersverwachtingen te zien.

kaart wijzigen: klik op de groene knoppen met een zwart kruis om in te zoomen, op de groene knop met een streepje om uit te zoomen of op de groene pijlen voor aangrenzende kaarten.


METAR-TAF: